Time;durP1;ratioP1;P1;durP2;ratioP2;P2;SDS_P1;SDS_P2;PMS_P1;PMS_P2;Temp;Humidity;BMP_temperature;BMP_pressure;BME280_temperature;BME280_humidity;BME280_pressure;Samples;Min_cycle;Max_cycle;Signal;HPM_P1;HPM_P2
2023/01/23 00:01:06;;;;;;;21.63;14.53;;;3.20;99.90;;;;;;5013980;28;20469;-78
2023/01/23 00:03:33;;;;;;;19.27;13.97;;;3.30;99.90;;;;;;5036546;28;20449;-79
2023/01/23 00:06:11;;;;;;;22.43;15.00;;;3.20;99.90;;;;;;5017674;28;21186;-80
2023/01/23 00:08:37;;;;;;;20.60;14.87;;;3.50;99.90;;;;;;5023849;28;20911;-75
2023/01/23 00:11:05;;;;;;;23.73;15.77;;;3.20;99.90;;;;;;5036319;28;20429;-78
2023/01/23 00:13:31;;;;;;;20.97;15.20;;;3.50;99.90;;;;;;5022058;28;20453;-76
2023/01/23 00:15:57;;;;;;;22.97;15.10;;;3.60;99.90;;;;;;5022850;28;20414;-76
2023/01/23 00:18:22;;;;;;;19.83;14.07;;;3.40;99.90;;;;;;4999649;28;20437;-77
2023/01/23 00:20:48;;;;;;;23.53;14.87;;;3.30;99.90;;;;;;5024772;28;20298;-79
2023/01/23 00:23:14;;;;;;;19.40;13.53;;;3.40;99.90;;;;;;5015781;28;20199;-80
2023/01/23 00:25:39;;;;;;;18.63;14.10;;;3.20;99.90;;;;;;5014321;28;20179;-77
2023/01/23 00:28:05;;;;;;;19.90;14.47;;;3.40;99.90;;;;;;5016312;28;20189;-77
2023/01/23 00:30:31;;;;;;;20.77;14.73;;;3.40;99.90;;;;;;5013999;28;20187;-79
2023/01/23 00:32:57;;;;;;;22.17;15.07;;;3.50;99.90;;;;;;5017766;28;20218;-79
2023/01/23 00:35:23;;;;;;;18.57;14.63;;;3.30;99.90;;;;;;5017650;28;20421;-79
2023/01/23 00:37:48;;;;;;;18.47;13.97;;;3.40;99.90;;;;;;5017428;28;20569;-79
2023/01/23 00:40:14;;;;;;;22.03;15.50;;;3.40;99.90;;;;;;5043977;28;20194;-77
2023/01/23 00:42:40;;;;;;;19.53;13.87;;;3.50;99.90;;;;;;5027881;28;20228;-77
2023/01/23 00:45:06;;;;;;;18.67;13.03;;;3.60;99.90;;;;;;5024848;28;20426;-79
2023/01/23 00:47:32;;;;;;;20.73;15.07;;;3.30;99.90;;;;;;5016286;28;20253;-80
2023/01/23 00:49:58;;;;;;;18.13;14.50;;;3.50;99.90;;;;;;5018631;28;20453;-79
2023/01/23 00:52:25;;;;;;;18.07;13.80;;;3.40;99.90;;;;;;5037626;28;20175;-79
2023/01/23 00:54:51;;;;;;;19.83;13.80;;;3.50;99.90;;;;;;4982346;28;20414;-77
2023/01/23 00:57:16;;;;;;;19.83;14.40;;;3.50;99.90;;;;;;5016721;28;20458;-77
2023/01/23 00:59:42;;;;;;;18.43;12.60;;;3.50;99.90;;;;;;5016523;28;20825;-78
2023/01/23 01:02:08;;;;;;;18.80;12.57;;;3.40;99.90;;;;;;5016419;28;20211;-79
2023/01/23 01:04:33;;;;;;;17.53;12.73;;;3.60;99.90;;;;;;5016677;28;20198;-79
2023/01/23 01:06:59;;;;;;;17.53;12.90;;;3.50;99.90;;;;;;5015533;28;20191;-79
2023/01/23 01:09:25;;;;;;;18.03;12.60;;;3.70;99.90;;;;;;5016678;28;20629;-75
2023/01/23 01:11:50;;;;;;;17.30;12.67;;;3.40;99.90;;;;;;5016788;28;20182;-76
2023/01/23 01:14:16;;;;;;;19.23;13.90;;;3.40;99.90;;;;;;5012143;28;20215;-78
2023/01/23 01:16:45;;;;;;;20.27;13.33;;;3.50;99.90;;;;;;5027678;28;20182;-80
2023/01/23 01:19:12;;;;;;;16.63;12.43;;;3.70;99.90;;;;;;5018593;28;20413;-77
2023/01/23 01:21:39;;;;;;;17.80;12.10;;;3.70;99.90;;;;;;5017718;28;20603;-79
2023/01/23 01:24:05;;;;;;;20.83;14.37;;;3.60;99.90;;;;;;5035433;28;20930;-79
2023/01/23 01:26:30;;;;;;;17.67;12.23;;;3.70;99.90;;;;;;5001353;28;20424;-77
2023/01/23 01:28:56;;;;;;;17.93;13.80;;;3.70;99.90;;;;;;5035360;28;20417;-78
2023/01/23 01:31:22;;;;;;;17.97;12.80;;;3.40;99.90;;;;;;5034724;28;20206;-78
2023/01/23 01:33:49;;;;;;;18.70;12.67;;;3.40;99.90;;;;;;5017590;28;20213;-77
2023/01/23 01:36:17;;;;;;;16.53;13.00;;;3.60;99.90;;;;;;5017973;28;20212;-79
2023/01/23 01:38:43;;;;;;;16.43;13.20;;;3.50;99.90;;;;;;5017239;28;20504;-79
2023/01/23 01:41:11;;;;;;;16.47;12.60;;;3.50;99.90;;;;;;5035106;28;20510;-79
2023/01/23 01:43:37;;;;;;;17.90;12.43;;;3.50;99.90;;;;;;5001175;28;20456;-79
2023/01/23 01:46:16;;;;;;;16.17;12.10;;;3.60;99.90;;;;;;5034600;28;20449;-77
2023/01/23 01:49:07;;;;;;;17.80;11.37;;;3.20;99.90;;;;;;5017908;28;20405;-77
2023/01/23 01:51:49;;;;;;;18.23;12.30;;;3.50;99.90;;;;;;5017006;28;20902;-78
2023/01/23 01:54:28;;;;;;;16.50;12.30;;;3.70;99.90;;;;;;5015078;28;20444;-78
2023/01/23 01:57:20;;;;;;;14.97;11.50;;;3.50;99.90;;;;;;5015172;28;20417;-78
2023/01/23 01:59:47;;;;;;;15.60;11.27;;;3.50;99.90;;;;;;5014825;28;20913;-79
2023/01/23 02:02:18;;;;;;;18.27;12.40;;;3.50;99.90;;;;;;5032668;28;20445;-79
2023/01/23 02:04:50;;;;;;;17.40;11.80;;;3.20;99.90;;;;;;4999139;28;20422;-78
2023/01/23 02:07:34;;;;;;;16.90;12.10;;;3.30;99.90;;;;;;5015128;28;21061;-78
2023/01/23 02:10:03;;;;;;;15.47;11.83;;;3.40;99.90;;;;;;5033442;28;20413;-79
2023/01/23 02:12:30;;;;;;;15.77;11.40;;;3.40;99.90;;;;;;5033207;28;20452;-77
2023/01/23 02:14:56;;;;;;;18.20;12.23;;;3.50;99.90;;;;;;5013256;28;20417;-79
2023/01/23 02:17:22;;;;;;;15.67;11.37;;;3.60;99.90;;;;;;5032785;28;20428;-77
2023/01/23 02:19:48;;;;;;;17.70;12.87;;;3.60;99.90;;;;;;5015434;28;20425;-79
2023/01/23 02:22:37;;;;;;;16.37;12.03;;;3.50;99.90;;;;;;5015792;28;20213;-76
2023/01/23 02:25:21;;;;;;;16.33;11.10;;;3.60;99.90;;;;;;5032607;28;20173;-78
2023/01/23 02:27:47;;;;;;;16.87;11.57;;;3.50;99.90;;;;;;5032655;28;20405;-77
2023/01/23 02:30:14;;;;;;;19.10;13.10;;;3.60;99.90;;;;;;5032957;28;20444;-78
2023/01/23 02:32:40;;;;;;;17.90;11.90;;;3.60;99.90;;;;;;5033167;28;20182;-79
2023/01/23 02:35:17;;;;;;;17.30;12.30;;;3.40;99.90;;;;;;5015668;28;20419;-78
2023/01/23 02:37:46;;;;;;;16.97;11.53;;;3.50;99.90;;;;;;5032632;28;20182;-80
2023/01/23 02:40:13;;;;;;;18.80;13.00;;;3.50;99.90;;;;;;5032595;28;20482;-78
2023/01/23 02:42:43;;;;;;;18.57;13.17;;;3.50;99.90;;;;;;5033470;28;20953;-79
2023/01/23 02:45:09;;;;;;;17.90;12.97;;;3.60;99.90;;;;;;5033123;28;20558;-80
2023/01/23 02:47:35;;;;;;;18.17;12.90;;;3.20;99.90;;;;;;5015526;28;20453;-78
2023/01/23 02:50:00;;;;;;;19.67;14.40;;;3.50;99.90;;;;;;5033108;28;20413;-77
2023/01/23 02:52:26;;;;;;;21.37;14.53;;;3.50;99.90;;;;;;4999458;28;20193;-79
2023/01/23 02:54:52;;;;;;;20.73;14.40;;;3.30;99.90;;;;;;5015661;28;20179;-78
2023/01/23 02:57:17;;;;;;;20.97;13.63;;;3.50;99.90;;;;;;5015911;28;20197;-79
2023/01/23 03:02:27;;;;;;;20.43;14.10;;;3.30;99.90;;;;;;5035592;28;20174;-77
2023/01/23 03:04:52;;;;;;;20.00;12.73;;;3.30;99.90;;;;;;5019620;28;20945;-78
2023/01/23 03:07:18;;;;;;;20.03;13.57;;;3.20;99.90;;;;;;5019319;28;20199;-77
2023/01/23 03:09:46;;;;;;;22.00;14.40;;;3.30;99.90;;;;;;5019639;28;20797;-79
2023/01/23 03:12:14;;;;;;;20.00;13.90;;;3.30;99.90;;;;;;5003717;28;20175;-79
2023/01/23 03:14:39;;;;;;;22.60;15.17;;;3.30;99.90;;;;;;5036169;28;20433;-77
2023/01/23 03:17:05;;;;;;;22.60;15.57;;;3.40;99.90;;;;;;5037086;28;20420;-77
2023/01/23 03:19:31;;;;;;;22.27;15.27;;;3.30;99.90;;;;;;5037491;28;20413;-79
2023/01/23 03:21:57;;;;;;;20.40;14.30;;;3.50;99.90;;;;;;5019327;28;20528;-77
2023/01/23 03:24:22;;;;;;;22.23;14.50;;;3.50;99.90;;;;;;5019348;28;20198;-78
2023/01/23 03:26:49;;;;;;;22.00;14.67;;;3.30;99.90;;;;;;5036718;28;20170;-79
2023/01/23 03:30:20;;;;;;;20.67;13.93;;;3.50;99.90;;;;;;5019529;28;20182;-77
2023/01/23 03:32:14;;;;;;;21.33;14.50;;;3.50;99.90;;;;;;5002502;28;20425;-79
2023/01/23 03:34:40;;;;;;;18.83;13.33;;;3.50;99.90;;;;;;5018916;28;20513;-79
2023/01/23 03:37:07;;;;;;;23.87;14.57;;;3.30;99.90;;;;;;5002678;28;20425;-79
2023/01/23 03:42:17;;;;;;;19.30;14.00;;;3.50;99.90;;;;;;5036725;28;20484;-78
2023/01/23 03:44:43;;;;;;;20.27;13.50;;;3.40;99.90;;;;;;5002369;28;20428;-79
2023/01/23 03:47:09;;;;;;;23.27;14.20;;;3.50;99.90;;;;;;5018477;28;20413;-79
2023/01/23 03:49:35;;;;;;;23.80;13.97;;;3.40;99.90;;;;;;5018882;28;20422;-79
2023/01/23 03:52:01;;;;;;;18.50;12.57;;;3.40;99.90;;;;;;5036104;28;20777;-77
2023/01/23 03:54:27;;;;;;;20.70;13.37;;;3.40;99.90;;;;;;5036097;28;20202;-78
2023/01/23 03:56:53;;;;;;;21.37;13.90;;;3.50;99.90;;;;;;5018488;28;20417;-77
2023/01/23 03:59:19;;;;;;;20.53;13.00;;;3.30;99.90;;;;;;5019352;28;20526;-76
2023/01/23 04:01:46;;;;;;;21.63;14.17;;;3.50;99.90;;;;;;5019451;28;20456;-79
2023/01/23 04:04:12;;;;;;;21.50;14.60;;;3.50;99.90;;;;;;5036946;28;20434;-79
2023/01/23 04:06:38;;;;;;;20.07;15.10;;;3.60;99.90;;;;;;5020286;28;20527;-79
2023/01/23 04:09:04;;;;;;;21.27;14.70;;;3.40;99.90;;;;;;5003168;28;20186;-77
2023/01/23 04:11:29;;;;;;;20.03;12.20;;;3.50;99.90;;;;;;5037189;28;20651;-78
2023/01/23 04:13:55;;;;;;;19.53;13.53;;;3.50;99.90;;;;;;5018854;28;20462;-79
2023/01/23 04:16:21;;;;;;;23.93;14.77;;;3.40;99.90;;;;;;5001265;28;20823;-79
2023/01/23 04:18:48;;;;;;;17.80;13.30;;;3.50;99.90;;;;;;5037026;28;20186;-78
2023/01/23 04:21:13;;;;;;;19.40;13.47;;;3.20;99.90;;;;;;5019626;28;20453;-77
2023/01/23 04:23:39;;;;;;;20.37;14.50;;;3.60;99.90;;;;;;5019133;28;20444;-79
2023/01/23 04:26:05;;;;;;;21.33;14.30;;;3.40;99.90;;;;;;5018368;28;20902;-76
2023/01/23 04:28:30;;;;;;;19.37;14.03;;;3.40;99.90;;;;;;5032193;28;20189;-78
2023/01/23 04:30:56;;;;;;;19.93;13.73;;;3.60;99.90;;;;;;5031600;28;20627;-78
2023/01/23 04:33:22;;;;;;;21.57;14.33;;;3.70;99.90;;;;;;5015784;28;20282;-77
2023/01/23 04:35:57;;;;;;;21.27;14.30;;;3.60;99.90;;;;;;5035559;28;20178;-79
2023/01/23 04:38:26;;;;;;;18.60;14.10;;;3.60;99.90;;;;;;5018074;28;20429;-76
2023/01/23 04:40:52;;;;;;;18.90;13.60;;;3.30;99.90;;;;;;5002099;28;21055;-76
2023/01/23 04:43:18;;;;;;;18.73;12.77;;;3.60;99.90;;;;;;5001872;28;20495;-79
2023/01/23 04:45:46;;;;;;;17.20;12.87;;;3.40;99.90;;;;;;5001725;28;20921;-78
2023/01/23 04:48:17;;;;;;;19.37;13.83;;;3.60;99.90;;;;;;5016526;28;20413;-78
2023/01/23 04:50:48;;;;;;;21.30;14.03;;;3.60;99.90;;;;;;4985228;28;20425;-78
2023/01/23 04:53:14;;;;;;;20.43;13.07;;;3.40;99.90;;;;;;5016251;28;20433;-78
2023/01/23 04:55:40;;;;;;;17.87;12.20;;;3.60;99.90;;;;;;5033894;28;20424;-78
2023/01/23 04:58:05;;;;;;;17.90;12.60;;;3.40;99.90;;;;;;5033613;28;20332;-78
2023/01/23 05:00:31;;;;;;;17.30;11.60;;;3.60;99.90;;;;;;5015825;28;20656;-78
2023/01/23 05:02:57;;;;;;;18.20;12.00;;;3.60;99.90;;;;;;4999902;28;20262;-78
2023/01/23 05:05:23;;;;;;;16.90;12.00;;;3.60;99.90;;;;;;5033775;28;20420;-78
2023/01/23 05:07:50;;;;;;;14.03;10.83;;;3.50;99.90;;;;;;5015864;28;21137;-78
2023/01/23 05:10:16;;;;;;;20.80;12.80;;;3.40;99.90;;;;;;5033594;28;20464;-78
2023/01/23 05:12:42;;;;;;;16.53;12.90;;;3.50;99.90;;;;;;5025965;28;20429;-78
2023/01/23 05:15:09;;;;;;;17.70;12.63;;;3.40;99.90;;;;;;4997889;28;20432;-78
2023/01/23 05:17:35;;;;;;;17.77;12.47;;;3.60;99.90;;;;;;5033129;28;20410;-78
2023/01/23 05:20:00;;;;;;;18.60;12.50;;;3.50;99.90;;;;;;5015237;28;20423;-78
2023/01/23 05:22:26;;;;;;;17.27;11.63;;;3.40;99.90;;;;;;5015582;28;20457;-78
2023/01/23 05:24:52;;;;;;;18.80;13.07;;;3.50;99.90;;;;;;5032543;28;20174;-78
2023/01/23 05:27:17;;;;;;;18.33;11.93;;;3.40;99.90;;;;;;5015922;28;20178;-78
2023/01/23 05:29:43;;;;;;;19.17;12.03;;;3.40;99.90;;;;;;4998698;28;20175;-78
2023/01/23 05:32:08;;;;;;;16.80;12.03;;;3.30;99.90;;;;;;5032850;28;20178;-78
2023/01/23 05:34:34;;;;;;;16.67;12.13;;;3.20;99.90;;;;;;5033016;28;20654;-76
2023/01/23 05:37:00;;;;;;;17.07;12.40;;;3.50;99.90;;;;;;5015545;28;20221;-77
2023/01/23 05:39:25;;;;;;;18.40;12.73;;;3.30;99.90;;;;;;5012385;28;20195;-76
2023/01/23 05:41:51;;;;;;;17.10;12.57;;;3.40;99.90;;;;;;5037446;28;20298;-77
2023/01/23 05:44:17;;;;;;;19.37;13.03;;;3.30;99.90;;;;;;4998737;28;20987;-77
2023/01/23 05:46:43;;;;;;;20.20;14.10;;;3.30;99.90;;;;;;5021818;28;20501;-77
2023/01/23 05:49:08;;;;;;;17.80;12.53;;;3.40;99.90;;;;;;5025298;28;20185;-78
2023/01/23 05:51:34;;;;;;;21.03;13.10;;;3.30;99.90;;;;;;5033599;28;20268;-78
2023/01/23 05:54:01;;;;;;;18.37;12.40;;;3.40;99.90;;;;;;5051012;28;20219;-79
2023/01/23 05:56:27;;;;;;;19.30;12.87;;;3.50;99.90;;;;;;5051841;28;20181;-78
2023/01/23 05:58:53;;;;;;;16.43;11.73;;;3.40;99.90;;;;;;5033191;28;21182;-78
2023/01/23 06:01:19;;;;;;;16.20;11.63;;;3.40;99.90;;;;;;5033575;28;20456;-78
2023/01/23 06:03:45;;;;;;;17.50;12.63;;;3.40;99.90;;;;;;5051004;28;20432;-78
2023/01/23 06:06:11;;;;;;;20.53;13.07;;;3.20;99.90;;;;;;5051455;28;20424;-78
2023/01/23 06:08:36;;;;;;;17.97;11.57;;;3.40;99.90;;;;;;5051249;28;20427;-78
2023/01/23 06:11:02;;;;;;;17.10;12.23;;;3.50;99.90;;;;;;5017204;28;20189;-78
2023/01/23 06:13:28;;;;;;;20.50;13.70;;;3.30;99.90;;;;;;5033116;28;20201;-77
2023/01/23 06:15:55;;;;;;;17.20;12.13;;;3.30;99.90;;;;;;5050961;28;20458;-78
2023/01/23 06:18:21;;;;;;;18.10;12.50;;;3.40;99.90;;;;;;5033064;28;20983;-77
2023/01/23 06:20:49;;;;;;;19.20;13.20;;;3.30;99.90;;;;;;5032186;28;20458;-77
2023/01/23 06:23:15;;;;;;;21.97;12.40;;;3.20;99.90;;;;;;5050410;28;20474;-77
2023/01/23 06:25:40;;;;;;;19.03;13.27;;;3.20;99.90;;;;;;5044048;28;20448;-77
2023/01/23 06:28:06;;;;;;;19.07;12.80;;;3.30;99.90;;;;;;5017429;28;20457;-77
2023/01/23 06:30:32;;;;;;;19.30;13.37;;;3.30;99.90;;;;;;5034483;28;20420;-77
2023/01/23 06:32:58;;;;;;;19.60;13.17;;;3.40;99.90;;;;;;4999059;28;20674;-77
2023/01/23 06:35:24;;;;;;;19.73;14.07;;;3.50;99.90;;;;;;5012289;28;20186;-76
2023/01/23 06:37:49;;;;;;;18.20;12.03;;;3.50;99.90;;;;;;5016241;28;20197;-77
2023/01/23 06:40:16;;;;;;;23.27;14.63;;;3.30;99.90;;;;;;5033898;28;20206;-77
2023/01/23 06:42:42;;;;;;;19.10;12.43;;;3.40;99.90;;;;;;5033742;28;20580;-77
2023/01/23 06:45:09;;;;;;;19.67;12.93;;;3.50;99.90;;;;;;5016344;28;20504;-77
2023/01/23 06:47:35;;;;;;;18.27;11.77;;;3.70;99.90;;;;;;5018637;28;20413;-76
2023/01/23 06:50:01;;;;;;;20.83;13.50;;;3.50;99.90;;;;;;5042206;28;20420;-77
2023/01/23 06:52:27;;;;;;;20.90;13.00;;;3.40;99.90;;;;;;5034043;28;20920;-77
2023/01/23 06:54:53;;;;;;;20.47;13.17;;;3.40;99.90;;;;;;5033838;28;20417;-77
2023/01/23 06:57:19;;;;;;;18.23;12.97;;;3.30;99.90;;;;;;5033715;28;20436;-77
2023/01/23 06:59:45;;;;;;;20.07;13.57;;;3.40;99.90;;;;;;5033909;28;21111;-77
2023/01/23 07:02:11;;;;;;;22.07;13.67;;;3.50;99.90;;;;;;5036099;28;20463;-78
2023/01/23 07:04:37;;;;;;;20.60;13.90;;;3.70;99.90;;;;;;5027155;28;20290;-78
2023/01/23 07:07:03;;;;;;;20.83;14.27;;;3.70;99.90;;;;;;5033708;28;20451;-78
2023/01/23 07:09:28;;;;;;;21.10;13.40;;;3.70;99.90;;;;;;5033576;28;20183;-78
2023/01/23 07:11:54;;;;;;;22.20;13.07;;;3.40;99.90;;;;;;5033857;28;20204;-78
2023/01/23 07:14:20;;;;;;;24.63;15.00;;;3.60;99.90;;;;;;5033422;28;20221;-78
2023/01/23 07:16:46;;;;;;;22.93;14.23;;;3.40;99.90;;;;;;5032544;28;20269;-78
2023/01/23 07:19:11;;;;;;;19.80;14.17;;;3.60;99.90;;;;;;5040185;28;20190;-78
2023/01/23 07:21:37;;;;;;;22.87;13.77;;;3.60;99.90;;;;;;5014014;28;20455;-78
2023/01/23 07:24:03;;;;;;;24.00;14.83;;;3.70;99.90;;;;;;5031873;28;20543;-78
2023/01/23 07:26:29;;;;;;;21.33;14.27;;;3.60;99.90;;;;;;5031995;28;20183;-78
2023/01/23 07:28:55;;;;;;;23.60;13.67;;;3.50;99.90;;;;;;5031717;28;20425;-77
2023/01/23 07:31:20;;;;;;;25.37;15.13;;;3.50;99.90;;;;;;5043262;28;20179;-78
2023/01/23 07:33:46;;;;;;;18.63;13.27;;;3.50;99.90;;;;;;5042367;28;20472;-77
2023/01/23 07:36:17;;;;;;;23.40;15.73;;;3.40;99.90;;;;;;5016173;28;20898;-77
2023/01/23 07:38:43;;;;;;;21.67;14.80;;;3.40;99.90;;;;;;5033305;28;20270;-77
2023/01/23 07:41:09;;;;;;;21.80;14.17;;;3.50;99.90;;;;;;5015232;28;20551;-77
2023/01/23 07:43:35;;;;;;;21.07;13.83;;;3.60;99.90;;;;;;5033280;28;20536;-78
2023/01/23 07:46:01;;;;;;;21.70;14.17;;;3.60;99.90;;;;;;5016177;28;20504;-77
2023/01/23 07:48:28;;;;;;;20.97;14.27;;;3.30;99.90;;;;;;5032526;28;20210;-77
2023/01/23 07:50:54;;;;;;;22.63;14.47;;;3.40;99.90;;;;;;4999261;28;20413;-77
2023/01/23 07:53:19;;;;;;;19.30;13.00;;;3.40;99.90;;;;;;5032301;28;20452;-77
2023/01/23 07:55:45;;;;;;;21.33;13.80;;;3.50;99.90;;;;;;5032992;28;20432;-78
2023/01/23 07:58:11;;;;;;;20.47;14.30;;;3.40;99.90;;;;;;5033050;28;20670;-77
2023/01/23 08:00:37;;;;;;;21.07;13.77;;;3.50;99.90;;;;;;5030061;28;20477;-77
2023/01/23 08:03:03;;;;;;;19.60;13.50;;;3.30;99.90;;;;;;5012284;28;20254;-78
2023/01/23 08:05:29;;;;;;;23.77;14.87;;;3.30;99.90;;;;;;5041187;28;20804;-78
2023/01/23 08:07:54;;;;;;;21.90;14.00;;;3.40;99.90;;;;;;5035377;28;20178;-78
2023/01/23 08:10:20;;;;;;;19.47;13.70;;;3.20;99.90;;;;;;5015122;28;20234;-77
2023/01/23 08:12:45;;;;;;;20.67;13.13;;;3.50;99.90;;;;;;5045303;28;20271;-78
2023/01/23 08:15:11;;;;;;;21.10;12.40;;;3.30;99.90;;;;;;5034285;28;20186;-77
2023/01/23 08:17:37;;;;;;;19.03;13.10;;;3.50;99.90;;;;;;5015054;28;20647;-77
2023/01/23 08:20:03;;;;;;;17.80;12.40;;;3.60;99.90;;;;;;5015396;28;20257;-78
2023/01/23 08:22:29;;;;;;;20.47;13.10;;;3.70;99.90;;;;;;5032500;28;20198;-78
2023/01/23 08:24:54;;;;;;;21.07;13.47;;;3.30;99.90;;;;;;5032913;28;20423;-78
2023/01/23 08:27:20;;;;;;;20.17;13.70;;;3.60;99.90;;;;;;5032559;28;20186;-78
2023/01/23 08:29:45;;;;;;;17.53;12.60;;;3.50;99.90;;;;;;5032895;28;20546;-78
2023/01/23 08:32:11;;;;;;;19.70;12.80;;;3.50;99.90;;;;;;5032959;28;20178;-78
2023/01/23 08:34:37;;;;;;;21.80;14.03;;;3.60;99.90;;;;;;5015102;28;20201;-78
2023/01/23 08:37:02;;;;;;;20.00;12.87;;;3.70;99.90;;;;;;4998594;28;20179;-78
2023/01/23 08:39:28;;;;;;;17.13;11.00;;;3.60;99.90;;;;;;5032668;28;20179;-78
2023/01/23 08:41:54;;;;;;;17.77;12.27;;;3.40;99.90;;;;;;5015219;28;20259;-77
2023/01/23 08:44:19;;;;;;;17.50;11.97;;;3.50;99.90;;;;;;5031950;28;20256;-79
2023/01/23 08:46:46;;;;;;;16.20;10.53;;;3.60;99.90;;;;;;5032061;28;20174;-79
2023/01/23 08:49:12;;;;;;;15.70;11.70;;;3.60;99.90;;;;;;5014960;28;20190;-78
2023/01/23 08:51:37;;;;;;;19.73;12.50;;;3.60;99.90;;;;;;5044772;28;20440;-78
2023/01/23 08:54:03;;;;;;;20.50;12.63;;;3.40;99.90;;;;;;5051854;28;20444;-78
2023/01/23 08:56:29;;;;;;;15.97;11.10;;;3.70;99.90;;;;;;5017847;28;20208;-78
2023/01/23 08:58:56;;;;;;;15.30;11.10;;;3.50;99.90;;;;;;5050575;28;20447;-78
2023/01/23 09:01:24;;;;;;;17.00;11.90;;;3.80;99.90;;;;;;5045040;28;20229;-78
2023/01/23 09:03:50;;;;;;;16.90;12.47;;;3.60;99.90;;;;;;5064325;28;20436;-78
2023/01/23 09:06:18;;;;;;;17.90;10.93;;;3.80;99.90;;;;;;5065860;28;20696;-77
2023/01/23 09:08:44;;;;;;;17.40;10.80;;;3.70;99.90;;;;;;5061070;28;20182;-79
2023/01/23 09:11:11;;;;;;;17.40;11.50;;;3.60;99.90;;;;;;5040732;28;20429;-78
2023/01/23 09:13:37;;;;;;;16.57;11.17;;;3.70;99.90;;;;;;5055981;28;20438;-78
2023/01/23 09:16:04;;;;;;;17.90;11.07;;;3.70;99.90;;;;;;5054902;28;20423;-78
2023/01/23 09:18:30;;;;;;;15.50;10.27;;;3.70;99.90;;;;;;5035975;28;20452;-78
2023/01/23 09:20:56;;;;;;;16.10;10.50;;;3.80;99.90;;;;;;5052637;28;20476;-78
2023/01/23 09:23:22;;;;;;;17.63;10.60;;;3.70;99.90;;;;;;5035231;28;20504;-77
2023/01/23 09:25:48;;;;;;;14.97;11.00;;;3.80;99.90;;;;;;5052718;28;20178;-78
2023/01/23 09:28:14;;;;;;;15.87;10.87;;;3.80;99.90;;;;;;5034591;28;20474;-78
2023/01/23 09:30:40;;;;;;;16.80;11.73;;;3.60;99.90;;;;;;5052593;28;20456;-78
2023/01/23 09:33:06;;;;;;;16.30;11.40;;;3.60;99.90;;;;;;5052026;28;20198;-77
2023/01/23 09:35:32;;;;;;;17.60;11.27;;;3.80;99.90;;;;;;5034394;28;20182;-78
2023/01/23 09:38:01;;;;;;;13.70;10.80;;;3.60;99.90;;;;;;5033554;28;20909;-79
2023/01/23 09:40:47;;;;;;;15.17;10.20;;;3.70;99.90;;;;;;5051767;28;20420;-78
2023/01/23 09:43:24;;;;;;;15.87;10.77;;;3.70;99.90;;;;;;5051656;28;20456;-78
2023/01/23 09:46:25;;;;;;;16.20;10.63;;;3.70;99.90;;;;;;5051844;28;20454;-78
2023/01/23 09:49:04;;;;;;;20.67;12.23;;;3.90;99.90;;;;;;5038655;28;20442;-79
2023/01/23 09:51:47;;;;;;;17.23;11.07;;;3.90;99.90;;;;;;5051696;28;20847;-78
2023/01/23 09:54:21;;;;;;;14.60;10.80;;;3.90;99.90;;;;;;5051538;28;20436;-78
2023/01/23 09:56:47;;;;;;;14.73;10.80;;;3.90;99.90;;;;;;5033958;28;20499;-78
2023/01/23 09:59:30;;;;;;;14.50;10.63;;;3.80;99.90;;;;;;5034004;28;20424;-77
2023/01/23 10:01:55;;;;;;;13.20;10.10;;;3.90;99.90;;;;;;5017175;28;20895;-78
2023/01/23 10:04:22;;;;;;;14.57;9.87;;;3.70;99.90;;;;;;5032845;28;20527;-78
2023/01/23 10:07:08;;;;;;;14.90;10.23;;;3.90;99.90;;;;;;5050883;28;20235;-78
2023/01/23 10:10:06;;;;;;;14.23;10.13;;;3.80;99.90;;;;;;5033720;28;20808;-78
2023/01/23 10:12:46;;;;;;;12.53;9.80;;;3.90;99.90;;;;;;5049592;28;20456;-78
2023/01/23 10:15:17;;;;;;;16.20;10.30;;;3.90;99.90;;;;;;5032482;28;20412;-77
2023/01/23 10:18:22;;;;;;;15.93;10.67;;;3.90;99.90;;;;;;5033194;28;20415;-78
2023/01/23 10:21:24;;;;;;;16.03;9.90;;;3.80;99.90;;;;;;5021778;28;20456;-78
2023/01/23 10:24:35;;;;;;;14.00;10.10;;;4.10;99.90;;;;;;5050763;28;20451;-79
2023/01/23 10:27:18;;;;;;;13.00;9.40;;;4.00;99.90;;;;;;5050955;28;20412;-78
2023/01/23 10:30:01;;;;;;;14.73;10.80;;;3.90;99.90;;;;;;5033465;28;20438;-78
2023/01/23 10:32:30;;;;;;;12.43;9.20;;;3.70;99.90;;;;;;5050933;28;20464;-78
2023/01/23 10:35:09;;;;;;;11.87;8.80;;;4.00;99.90;;;;;;5016490;28;20515;-78
2023/01/23 10:37:51;;;;;;;12.97;9.50;;;4.20;99.90;;;;;;5032929;28;20439;-78
2023/01/23 10:43:19;;;;;;;13.60;9.20;;;4.20;99.90;;;;;;5051138;28;20456;-78
2023/01/23 10:45:46;;;;;;;10.20;8.70;;;4.10;99.90;;;;;;5034355;28;20420;-78
2023/01/23 10:48:29;;;;;;;12.40;8.50;;;3.80;99.90;;;;;;5051401;28;20514;-78
2023/01/23 10:50:54;;;;;;;10.43;7.47;;;4.00;99.90;;;;;;5051291;28;20446;-78
2023/01/23 10:53:20;;;;;;;10.90;7.90;;;3.90;99.90;;;;;;5049286;28;20436;-77
2023/01/23 10:55:47;;;;;;;11.70;8.70;;;3.80;99.90;;;;;;5048773;28;20435;-77
2023/01/23 10:58:34;;;;;;;11.73;8.70;;;4.00;99.90;;;;;;5031154;28;20470;-77
2023/01/23 11:01:00;;;;;;;10.63;7.70;;;4.00;99.90;;;;;;5049013;28;20447;-77
2023/01/23 11:03:33;;;;;;;10.47;7.43;;;4.10;99.90;;;;;;5048992;28;20428;-77
2023/01/23 11:06:07;;;;;;;12.40;8.13;;;3.90;99.90;;;;;;5049185;28;20209;-78
2023/01/23 11:08:36;;;;;;;10.70;8.00;;;3.80;99.90;;;;;;5030857;28;20473;-77
2023/01/23 11:11:18;;;;;;;11.60;8.50;;;4.00;99.90;;;;;;5048127;28;20435;-77
2023/01/23 11:13:47;;;;;;;10.93;7.80;;;3.90;99.90;;;;;;5048770;28;20440;-77
2023/01/23 11:16:19;;;;;;;12.97;8.90;;;4.10;99.90;;;;;;5047755;28;20823;-77
2023/01/23 11:18:54;;;;;;;13.30;9.20;;;4.00;99.90;;;;;;5048817;28;20413;-77
2023/01/23 11:21:21;;;;;;;13.30;9.73;;;4.10;99.90;;;;;;5048823;28;20459;-77
2023/01/23 11:23:47;;;;;;;12.47;8.30;;;4.10;99.90;;;;;;5033018;28;20432;-77
2023/01/23 11:26:33;;;;;;;12.90;8.10;;;4.10;99.90;;;;;;5052784;28;20411;-77
2023/01/23 11:28:58;;;;;;;15.03;9.27;;;4.10;99.90;;;;;;5052024;28;20198;-77
2023/01/23 11:31:25;;;;;;;13.23;9.63;;;4.10;99.90;;;;;;5034540;28;20898;-77
2023/01/23 11:33:55;;;;;;;13.77;10.00;;;4.20;99.90;;;;;;5051946;28;20193;-78
2023/01/23 11:36:30;;;;;;;13.00;9.90;;;4.10;99.90;;;;;;5052556;28;20440;-79
2023/01/23 11:39:15;;;;;;;12.00;9.40;;;4.20;99.90;;;;;;5031549;28;20927;-77
2023/01/23 11:41:43;;;;;;;11.77;9.23;;;4.30;99.90;;;;;;5032061;28;20459;-77
2023/01/23 11:44:18;;;;;;;11.20;8.93;;;4.30;99.90;;;;;;5031669;28;20455;-78
2023/01/23 11:47:05;;;;;;;14.77;10.37;;;4.10;99.90;;;;;;5032037;28;20496;-77
2023/01/23 11:49:51;;;;;;;14.10;9.90;;;4.10;99.90;;;;;;5032006;28;20417;-77
2023/01/23 11:52:36;;;;;;;12.83;10.10;;;4.10;99.90;;;;;;4998157;28;20556;-77
2023/01/23 11:55:44;;;;;;;14.30;10.30;;;4.10;99.90;;;;;;5031733;28;20432;-77
2023/01/23 11:58:25;;;;;;;13.93;10.30;;;4.30;99.90;;;;;;5031840;28;20419;-77
2023/01/23 12:01:24;;;;;;;14.60;10.90;;;4.50;99.90;;;;;;5013904;28;20459;-77
2023/01/23 12:04:29;;;;;;;19.03;11.03;;;4.50;99.90;;;;;;5013831;28;20461;-77
2023/01/23 12:07:16;;;;;;;14.10;10.83;;;4.30;99.90;;;;;;5031764;28;20418;-78
2023/01/23 12:09:54;;;;;;;13.00;10.00;;;4.40;99.90;;;;;;5013936;28;20987;-77
2023/01/23 12:12:47;;;;;;;14.43;10.63;;;4.40;99.90;;;;;;5014250;28;20417;-77
2023/01/23 12:15:36;;;;;;;14.10;10.23;;;4.50;99.90;;;;;;5031499;28;20427;-77
2023/01/23 12:18:29;;;;;;;14.97;11.40;;;4.40;99.90;;;;;;5031394;28;20491;-77
2023/01/23 12:21:08;;;;;;;13.30;10.10;;;4.20;99.90;;;;;;5031416;28;20489;-78
2023/01/23 12:24:17;;;;;;;15.70;10.80;;;4.30;99.90;;;;;;5031311;28;20429;-77
2023/01/23 12:27:00;;;;;;;14.33;10.47;;;4.30;99.90;;;;;;5033604;28;20980;-78
2023/01/23 12:29:49;;;;;;;14.93;11.30;;;4.50;99.90;;;;;;5033428;28;20409;-77
2023/01/23 12:32:34;;;;;;;16.07;10.47;;;4.40;99.90;;;;;;5034206;28;20797;-78
2023/01/23 12:35:25;;;;;;;14.33;10.20;;;4.20;99.90;;;;;;5014974;28;20519;-78
2023/01/23 12:38:18;;;;;;;16.63;11.30;;;4.40;99.90;;;;;;5034433;28;20421;-78
2023/01/23 12:40:52;;;;;;;13.83;10.67;;;4.50;99.90;;;;;;5015098;28;20445;-78
2023/01/23 12:43:33;;;;;;;19.10;11.83;;;4.50;99.90;;;;;;5015210;28;20457;-78
2023/01/23 12:46:07;;;;;;;16.10;11.40;;;4.50;99.90;;;;;;5032961;28;20457;-78
2023/01/23 12:48:51;;;;;;;14.20;10.50;;;4.30;99.90;;;;;;5032512;28;20425;-78
2023/01/23 12:51:25;;;;;;;18.40;12.47;;;4.30;99.90;;;;;;5014786;28;20909;-78
2023/01/23 12:53:55;;;;;;;18.80;11.83;;;4.50;99.90;;;;;;5031763;28;20439;-78
2023/01/23 12:56:29;;;;;;;14.50;10.80;;;4.50;99.90;;;;;;5014668;28;20409;-78
2023/01/23 12:59:16;;;;;;;13.87;10.30;;;4.40;99.90;;;;;;5032033;28;20417;-78
2023/01/23 13:02:17;;;;;;;17.63;11.37;;;4.40;99.90;;;;;;5032670;28;20565;-78